ADDS METAR Data INFO
IDs: Format: Raw Decoded Include TAF

Data at: 2112 UTC 22 Oct 2017

KAQP 222054Z AUTO 23014KT 10SM CLR 19/M06 A2986 RMK AO2
KAQP 222035Z AUTO 22009G13KT 10SM CLR 19/M06 A2986 RMK AO2
KAQP 222014Z AUTO 24015G19KT 10SM CLR 19/M07 A2987 RMK AO2
KAQP 221955Z AUTO 24016G21KT 10SM CLR 19/M03 A2988 RMK AO2
KAQP 221934Z AUTO 22010G16KT 10SM CLR 19/M02 A2989 RMK AO2
KAQP 221914Z AUTO 23012G18KT 10SM CLR 18/M02 A2991 RMK AO2
KAQP 221854Z AUTO 24013G17KT 10SM CLR 18/M03 A2992 RMK AO2
KAQP 221835Z AUTO 25014G18KT 10SM CLR 18/M03 A2993 RMK AO2
KAQP 221815Z AUTO 25010KT 10SM CLR 18/M03 A2994 RMK AO2
KAQP 221754Z AUTO 24008KT 10SM CLR 18/M02 A2995 RMK AO2
KAQP 221734Z AUTO 25010KT 10SM CLR 17/M02 A2996 RMK AO2
KAQP 221714Z AUTO 24009G15KT 10SM CLR 16/M01 A2997 RMK AO2
KAQP 221654Z AUTO 25010KT 10SM CLR 16/00 A2997 RMK AO2
KAQP 221634Z AUTO 24008KT 10SM CLR 14/01 A2998 RMK AO2
KAQP 221615Z AUTO 25008KT 10SM CLR 13/02 A2998 RMK AO2
KAQP 221554Z AUTO 24011G15KT 10SM CLR 12/02 A2998 RMK AO2
KAQP 221534Z AUTO 24009KT 10SM CLR 11/03 A2998 RMK AO2
KAQP 221515Z AUTO 24008KT 10SM CLR 10/02 A2998 RMK AO2
KAQP 221455Z AUTO 24008KT 10SM CLR 09/03 A2997 RMK AO2
KAQP 221434Z AUTO 25008KT 10SM CLR 08/03 A2996 RMK AO2
KAQP 221415Z AUTO 25007KT 10SM CLR 07/03 A2996 RMK AO2
KAQP 221354Z AUTO 25008KT 10SM CLR 06/02 A2997 RMK AO2
KAQP 221335Z AUTO 24007KT 10SM CLR 04/02 A2997 RMK AO2
KAQP 221314Z AUTO 23007KT 10SM CLR 04/01 A2996 RMK AO2
KAQP 221255Z AUTO 24007KT 10SM CLR 04/01 A2995 RMK AO2
KAQP 221235Z AUTO 24006KT 10SM CLR 04/01 A2995 RMK AO2
KAQP 221214Z AUTO 23007KT 10SM CLR 05/02 A2994 RMK AO2
KAQP 221154Z AUTO 24007KT 10SM CLR 04/02 A2994 RMK AO2
KAQP 221135Z AUTO 23005KT 10SM CLR 04/02 A2993 RMK AO2
KAQP 221114Z AUTO 25005KT 10SM CLR 04/02 A2992 RMK AO2
KAQP 221054Z AUTO 24005KT 10SM CLR 04/02 A2992 RMK AO2
KAQP 221034Z AUTO 23006KT 10SM CLR 05/02 A2992 RMK AO2
KAQP 221014Z AUTO 23006KT 10SM CLR 05/03 A2992 RMK AO2
KAQP 220954Z AUTO 23006KT 10SM CLR 06/02 A2992 RMK AO2
KAQP 220934Z AUTO 22005KT 10SM CLR 06/03 A2992 RMK AO2
KAQP 220914Z AUTO 23007KT 10SM CLR 06/03 A2990 RMK AO2
KAQP 220854Z AUTO 23007KT 10SM CLR 06/03 A2989 RMK AO2
KAQP 220834Z AUTO 22005KT 10SM CLR 07/03 A2988 RMK AO2
KAQP 220814Z AUTO 23005KT 10SM CLR 07/03 A2989 RMK AO2
KAQP 220754Z AUTO 24005KT 10SM CLR 07/03 A2989 RMK AO2
KAQP 220735Z AUTO 24007KT 10SM CLR 07/03 A2989 RMK AO2
KAQP 220714Z AUTO 25007KT 10SM CLR 07/04 A2988 RMK AO2
KAQP 220654Z AUTO 25007KT 10SM CLR 08/04 A2987 RMK AO2
KAQP 220635Z AUTO 25008KT 10SM CLR 07/04 A2986 RMK AO2
KAQP 220614Z AUTO 25008KT 10SM CLR 08/04 A2985 RMK AO2
KAQP 220554Z AUTO 24007KT 10SM CLR 08/04 A2985 RMK AO2
KAQP 220534Z AUTO 24007KT 10SM CLR 08/04 A2987 RMK AO2
KAQP 220514Z AUTO 24008KT 10SM CLR 08/04 A2985 RMK AO2
KAQP 220455Z AUTO 24008KT 10SM CLR 07/04 A2983 RMK AO2
KAQP 220434Z AUTO 25006KT 10SM CLR 08/04 A2983 RMK AO2
KAQP 220414Z AUTO 26008KT 10SM CLR 08/05 A2981 RMK AO2
KAQP 220355Z AUTO 26007KT 10SM CLR 08/04 A2981 RMK AO2
KAQP 220334Z AUTO 26007KT 10SM CLR 08/05 A2982 RMK AO2
KAQP 220315Z AUTO 26010KT 10SM CLR 09/05 A2982 RMK AO2
KAQP 220255Z AUTO 26009KT 10SM CLR 09/06 A2981 RMK AO2
KAQP 220234Z AUTO 26007KT 10SM CLR 09/05 A2978 RMK AO2
KAQP 220214Z AUTO 26009KT 10SM CLR 09/05 A2978 RMK AO2
KAQP 220154Z AUTO 26009KT 10SM CLR 10/06 A2978 RMK AO2
KAQP 220135Z AUTO 26009KT 10SM CLR 10/06 A2980 RMK AO2
KAQP 220114Z AUTO 27010KT 10SM CLR 11/06 A2980 RMK AO2
KAQP 220055Z AUTO 26011KT 10SM CLR 11/06 A2980 RMK AO2
KAQP 220035Z AUTO 27012KT 10SM CLR 12/06 A2978 RMK AO2
KAQP 220015Z AUTO 26012KT 10SM CLR 12/05 A2976 RMK AO2
KAQP 212354Z AUTO 26011KT 10SM SCT100 12/05 A2974 RMK AO2 LTG DSNT NE AND NW
KAQP 212334Z AUTO 28013KT 10SM BKN100 13/05 A2971 RMK AO2
KAQP 212315Z AUTO 28009KT 10SM BKN090 14/05 A2971 RMK AO2
KAQP 212254Z AUTO 28013G19KT 10SM BKN090 14/05 A2970 RMK AO2 LTG DSNT NE
KAQP 212235Z AUTO 28021G25KT 10SM SCT075 BKN100 14/06 A2969 RMK AO2 LTG DSNT SE
KAQP 212214Z AUTO 28015G18KT 10SM BKN075 BKN090 15/06 A2968 RMK AO2 LTG DSNT E
KAQP 212154Z AUTO 28014G26KT 10SM SCT039 SCT055 BKN075 15/06 A2966 RMK AO2 LTG DSNT SE
KAQP 212135Z AUTO 28018G26KT 10SM SCT039 BKN049 OVC060 16/07 A2964 RMK AO2
KAQP 212114Z AUTO 27012G18KT 10SM BKN043 OVC050 16/08 A2963 RMK AO2
KAQP 212054Z AUTO 28015G21KT 10SM OVC039 15/08 A2961 RMK AO2 LTG DSNT NE AND SE
KAQP 212034Z AUTO 29014G18KT 10SM SCT030 OVC039 15/07 A2961 RMK AO2 LTG DSNT NE
KAQP 212014Z AUTO 29013G20KT 10SM OVC030 15/08 A2959 RMK AO2 LTG DSNT SE
KAQP 211954Z AUTO 28015G20KT 10SM OVC030 15/08 A2958 RMK AO2 LTG DSNT E
KAQP 211934Z AUTO 28017G21KT 10SM OVC028 15/08 A2957 RMK AO2 LTG DSNT SE
KAQP 211914Z AUTO 28020G24KT 10SM BKN028 BKN037 16/08 A2957 RMK AO2 LTG DSNT SE
KAQP 211855Z AUTO 30018G21KT 10SM VCTS SCT032 SCT038 BKN080 16/08 A2954 RMK AO2 LTG DSNT NE
KAQP 211835Z AUTO 30014KT 7SM VCTSRA SCT025 BKN034 BKN045 16/10 A2953 RMK AO2 LTG DSNT N AND S
KAQP 211814Z AUTO 27016G23KT 10SM BKN029 BKN038 21/14 A2951 RMK AO2
KAQP 211754Z AUTO 20015G19KT 10SM BKN029 BKN043 23/16 A2950 RMK AO2
KAQP 211734Z AUTO 20013G20KT 10SM OVC027 22/16 A2950 RMK AO2
KAQP 211714Z AUTO 19008G15KT 10SM OVC027 22/16 A2950 RMK AO2
KAQP 211654Z AUTO 19011G19KT 10SM BKN023 BKN037 22/16 A2950 RMK AO2
KAQP 211635Z AUTO 17008G16KT 10SM BKN021 OVC039 21/16 A2950 RMK AO2
KAQP 211614Z AUTO 17007G17KT 10SM BKN021 BKN039 BKN065 21/16 A2951 RMK AO2
KAQP 211554Z AUTO 17008KT 10SM SCT031 SCT039 BKN070 21/16 A2950 RMK AO2
KAQP 211534Z AUTO 18009G15KT 145V205 10SM SCT038 BKN045 BKN070 21/16 A2950 RMK AO2
KAQP 211515Z AUTO 18009G15KT 10SM OVC070 21/15 A2951 RMK AO2
KAQP 211454Z AUTO 17008G14KT 10SM SCT045 OVC060 20/15 A2950 RMK AO2
KAQP 211434Z AUTO 17009G14KT 10SM BKN050 OVC055 19/14 A2950 RMK AO2
KAQP 211415Z AUTO 17009G16KT 10SM SCT042 OVC050 19/14 A2950 RMK AO2
KAQP 211354Z AUTO 16010G20KT 10SM BKN042 OVC049 19/14 A2950 RMK AO2
KAQP 211335Z AUTO 16010G15KT 10SM BKN040 OVC047 18/14 A2950 RMK AO2
KAQP 211315Z AUTO 15011G17KT 10SM BKN040 OVC048 18/14 A2950 RMK AO2 LTG DSNT E
KAQP 211254Z AUTO 14008G14KT 10SM BKN040 OVC048 18/13 A2950 RMK AO2
KAQP 211235Z AUTO 15009KT 10SM BKN036 OVC043 18/14 A2950 RMK AO2
KAQP 211215Z AUTO 15009KT 10SM BKN034 OVC040 18/13 A2950 RMK AO2
KAQP 211155Z AUTO 15008KT 10SM BKN034 18/13 A2950 RMK AO2
KAQP 211135Z AUTO 15008KT 10SM SCT030 18/13 A2950 RMK AO2
KAQP 211115Z AUTO 15010KT 10SM BKN030 18/13 A2949 RMK AO2
KAQP 211054Z AUTO 16007KT 10SM SCT030 18/13 A2950 RMK AO2
KAQP 211034Z AUTO 15010G15KT 10SM CLR 18/13 A2948 RMK AO2
KAQP 211014Z AUTO 15011G15KT 10SM CLR 18/13 A2948 RMK AO2
KAQP 210954Z AUTO 16010G15KT 10SM CLR 18/13 A2948 RMK AO2
KAQP 210935Z AUTO 16010G18KT 10SM CLR 19/13 A2949 RMK AO2
KAQP 210914Z AUTO 16011G16KT 10SM CLR 19/13 A2949 RMK AO2